Terminal Aerodrome Forecast
Issued by NWS Upton, NY

Home | Current Version | Previous Version | Text Only | Print | Product List | Glossary On
Versions: 1 2 3 4 5 6 7 8 9 10 11 12 13 14 15 16 17 18 19 20 21 22 23 24 25 26 27 28 29 30 31 32 33 34 35 36
000
FTUS41 KOKX 250837 AAA
TAFISP
TAF AMD
KISP 250837Z 2509/2606 23007KT P6SM SKC
     FM251400 23012G19KT P6SM FEW250
     FM251700 22018G26KT P6SM SCT200
     FM260000 22013G20KT P6SM FEW060
     FM260200 23009KT P6SM FEW060=

USA.gov is the U.S. government's official web portal to all federal, state and local government web resources and services.